Kincardine, United Kingdom
Current Conditions -  °F | °C
As of 3:50 PM on Thursday 29 Jan 2015 (Local Time) from EGPH Reporting Station
Few Clouds Few Clouds  
Wind Chill: 30°   Ceiling: Unl
Heat Index: 36°   Visibility: 6mi
Dew Point: 30°   Wind: 7mph
Humidity: 81%   Direction: 270°W
Pressure: 28.73"   Gusts: NA
Location:  56.07°N, 3.72°W
Report Text: EGPH 291550Z 27006KT 9999 FEW017 02/M01 Q0973
Loading
Personal Weather Stations






























Interactive Weather Map New forecast layout! Learn more

10-Day Weather Forecast

Advertisements
Track Severe Weather on mobile